createdAt,value
2019-04-21T00:01:59.655Z,9.81
2019-04-21T00:04:43.279Z,9.70
2019-04-21T00:07:25.091Z,9.67
2019-04-21T00:10:02.573Z,9.62
2019-04-21T00:12:28.325Z,9.67
2019-04-21T00:14:57.909Z,9.78
2019-04-21T00:17:23.115Z,9.81
2019-04-21T00:20:09.124Z,9.78
2019-04-21T00:22:43.138Z,9.76
2019-04-21T00:25:20.997Z,9.73
2019-04-21T00:27:50.173Z,9.68
2019-04-21T00:30:38.252Z,9.60
2019-04-21T00:32:53.967Z,9.44
2019-04-21T00:35:21.081Z,9.46
2019-04-21T00:38:13.076Z,9.46
2019-04-21T00:40:52.120Z,9.42
2019-04-21T00:43:15.164Z,9.39
2019-04-21T00:45:44.914Z,9.32
2019-04-21T00:48:29.841Z,9.30
2019-04-21T00:51:21.158Z,9.24
2019-04-21T00:53:51.648Z,9.21
2019-04-21T00:56:21.293Z,9.16
2019-04-21T00:58:56.078Z,9.06
2019-04-21T01:01:24.972Z,8.99
2019-04-21T01:04:02.204Z,9.01
2019-04-21T01:06:38.143Z,9.01
2019-04-21T01:09:02.664Z,9.01
2019-04-21T01:11:44.244Z,9.01
2019-04-21T01:14:25.882Z,8.95
2019-04-21T01:16:51.385Z,8.83
2019-04-21T01:19:17.262Z,8.82
2019-04-21T01:21:34.400Z,8.70
2019-04-21T01:24:13.385Z,8.64
2019-04-21T01:26:52.518Z,8.67
2019-04-21T01:29:39.028Z,8.59
2019-04-21T01:32:14.603Z,8.55
2019-04-21T01:34:47.063Z,8.54
2019-04-21T01:37:14.548Z,8.47
2019-04-21T01:39:58.475Z,8.49
2019-04-21T01:44:58.272Z,8.40
2019-04-21T01:47:26.300Z,8.42
2019-04-21T01:49:56.554Z,8.43
2019-04-21T01:52:47.334Z,8.38
2019-04-21T01:55:20.268Z,8.36
2019-04-21T01:58:09.740Z,8.30
2019-04-21T02:01:10.215Z,8.11
2019-04-21T02:03:54.417Z,7.97
2019-04-21T02:06:22.896Z,7.97
2019-04-21T02:08:48.800Z,7.92
2019-04-21T02:11:30.025Z,7.88
2019-04-21T02:14:31.136Z,7.87
2019-04-21T02:16:34.307Z,7.81
2019-04-21T02:19:08.225Z,7.85
2019-04-21T02:21:36.974Z,7.83
2019-04-21T02:24:23.862Z,7.65
2019-04-21T02:26:54.104Z,7.57
2019-04-21T02:29:26.703Z,7.58
2019-04-21T02:32:10.576Z,7.58
2019-04-21T02:34:49.036Z,7.51
2019-04-21T02:39:51.389Z,7.52
2019-04-21T02:42:18.687Z,7.48
2019-04-21T02:45:06.652Z,7.44
2019-04-21T02:52:46.294Z,7.45
2019-04-21T02:55:06.352Z,7.38
2019-04-21T03:00:40.581Z,7.24
2019-04-21T03:03:22.949Z,7.14
2019-04-21T03:06:04.006Z,7.07
2019-04-21T03:08:43.855Z,7.08
2019-04-21T03:13:44.528Z,7.13
2019-04-21T03:18:50.389Z,7.09
2019-04-21T03:24:05.417Z,7.04
2019-04-21T03:26:36.380Z,7.06
2019-04-21T03:29:03.656Z,7.00
2019-04-21T03:34:41.067Z,6.94
2019-04-21T03:39:11.333Z,6.87
2019-04-21T03:44:24.703Z,6.85
2019-04-21T03:47:02.137Z,6.70
2019-04-21T03:52:19.855Z,6.41
2019-04-21T03:54:49.158Z,6.43
2019-04-21T03:57:17.799Z,6.48
2019-04-21T03:59:47.356Z,6.51
2019-04-21T04:02:47.220Z,6.50
2019-04-21T04:05:10.970Z,6.47
2019-04-21T04:07:59.080Z,6.50
2019-04-21T04:10:22.904Z,6.35
2019-04-21T04:12:57.813Z,6.33
2019-04-21T04:15:39.596Z,6.35
2019-04-21T04:18:08.755Z,6.40
2019-04-21T04:20:43.816Z,6.40
2019-04-21T04:23:09.804Z,6.45
2019-04-21T04:25:49.431Z,6.37
2019-04-21T04:28:23.029Z,6.37
2019-04-21T04:30:52.058Z,6.38
2019-04-21T04:33:38.411Z,6.40
2019-04-21T04:36:31.111Z,6.47
2019-04-21T04:38:39.558Z,6.61
2019-04-21T04:41:28.499Z,6.62
2019-04-21T04:44:00.937Z,6.65
2019-04-21T04:46:26.726Z,6.76
2019-04-21T04:49:01.753Z,6.78
2019-04-21T04:51:48.309Z,6.86
2019-04-21T04:54:32.437Z,6.82
2019-04-21T04:56:38.360Z,6.82
2019-04-21T05:02:08.698Z,7.00
2019-04-21T05:04:30.259Z,7.06
2019-04-21T05:06:59.946Z,7.13
2019-04-21T05:12:03.533Z,7.26
2019-04-21T05:14:39.037Z,7.35
2019-04-21T05:17:14.116Z,7.50
2019-04-21T05:19:53.876Z,7.62
2019-04-21T05:24:44.236Z,7.84
2019-04-21T05:27:32.086Z,7.97
2019-04-21T05:30:17.598Z,8.10
2019-04-21T05:32:58.406Z,8.20
2019-04-21T05:35:45.207Z,8.34
2019-04-21T05:38:21.422Z,8.45
2019-04-21T05:40:48.357Z,8.62
2019-04-21T05:43:32.694Z,8.71
2019-04-21T05:46:06.018Z,8.79
2019-04-21T05:48:39.802Z,8.92
2019-04-21T05:51:14.886Z,9.03
2019-04-21T05:53:48.052Z,9.19
2019-04-21T05:56:22.946Z,9.28
2019-04-21T05:59:00.174Z,9.46
2019-04-21T06:01:44.572Z,9.63
2019-04-21T06:04:03.925Z,9.71
2019-04-21T06:06:43.577Z,9.86
2019-04-21T06:09:14.605Z,9.97
2019-04-21T06:11:45.914Z,10.10
2019-04-21T06:14:21.751Z,10.22
2019-04-21T06:16:57.000Z,10.28
2019-04-21T06:19:30.966Z,10.37
2019-04-21T06:21:57.524Z,10.50
2019-04-21T06:24:43.399Z,10.64
2019-04-21T06:27:11.581Z,10.71
2019-04-21T06:29:46.738Z,10.81
2019-04-21T06:35:07.300Z,11.02
2019-04-21T06:42:34.225Z,11.31
2019-04-21T06:45:27.564Z,11.40
2019-04-21T06:47:42.326Z,11.47
2019-04-21T06:50:19.056Z,11.57
2019-04-21T06:53:00.790Z,11.64
2019-04-21T06:55:20.377Z,11.74
2019-04-21T06:57:51.615Z,11.81
2019-04-21T07:00:34.801Z,11.88
2019-04-21T07:03:17.106Z,12.00
2019-04-21T07:05:42.473Z,12.07
2019-04-21T07:08:21.935Z,12.15
2019-04-21T07:10:45.084Z,12.18
2019-04-21T07:13:15.376Z,12.30
2019-04-21T07:15:53.297Z,12.43
2019-04-21T07:18:31.082Z,12.50
2019-04-21T07:21:00.077Z,12.54
2019-04-21T07:23:38.641Z,12.64
2019-04-21T07:26:08.840Z,12.71
2019-04-21T07:28:46.336Z,12.78
2019-04-21T07:31:31.709Z,12.89
2019-04-21T07:36:30.940Z,13.05
2019-04-21T07:38:49.889Z,13.12
2019-04-21T07:41:18.604Z,13.18
2019-04-21T07:43:55.675Z,13.28
2019-04-21T07:46:31.370Z,13.34
2019-04-21T07:49:36.999Z,13.46
2019-04-21T07:52:33.537Z,13.58
2019-04-21T07:55:16.732Z,13.70
2019-04-21T07:57:33.078Z,13.82
2019-04-21T08:00:20.586Z,13.89
2019-04-21T08:02:40.433Z,13.99
2019-04-21T08:07:52.004Z,14.11
2019-04-21T08:10:23.243Z,14.24
2019-04-21T08:12:54.459Z,14.37
2019-04-21T08:15:38.645Z,14.43
2019-04-21T08:18:03.701Z,14.56
2019-04-21T08:20:36.302Z,14.72
2019-04-21T08:23:13.238Z,15.04
2019-04-21T08:25:53.012Z,15.04
2019-04-21T08:28:11.916Z,15.28
2019-04-21T08:30:47.791Z,15.28
2019-04-21T08:33:33.754Z,15.34
2019-04-21T08:36:13.975Z,15.49
2019-04-21T08:38:34.451Z,15.68
2019-04-21T08:46:13.727Z,15.62
2019-04-21T08:48:54.259Z,15.66
2019-04-21T08:51:50.424Z,15.72
2019-04-21T08:53:53.489Z,15.80
2019-04-21T08:56:52.635Z,15.92
2019-04-21T08:59:51.825Z,16.17
2019-04-21T09:02:40.284Z,16.17
2019-04-21T09:05:15.438Z,16.31
2019-04-21T09:07:47.587Z,16.48
2019-04-21T09:10:17.657Z,16.57
2019-04-21T09:12:49.059Z,16.49
2019-04-21T09:15:19.093Z,16.37
2019-04-21T09:17:48.380Z,16.32
2019-04-21T09:20:32.702Z,16.37
2019-04-21T09:23:06.401Z,16.40
2019-04-21T09:25:40.573Z,16.59
2019-04-21T09:28:12.604Z,16.91
2019-04-21T09:30:26.391Z,17.14
2019-04-21T09:33:00.198Z,17.26
2019-04-21T09:35:31.903Z,17.40
2019-04-21T09:38:17.175Z,17.69
2019-04-21T09:40:44.122Z,17.81
2019-04-21T09:43:13.435Z,17.74
2019-04-21T09:45:45.311Z,18.06
2019-04-21T09:48:20.531Z,18.29
2019-04-21T09:50:50.817Z,18.17
2019-04-21T09:53:29.469Z,18.44
2019-04-21T09:56:01.040Z,18.77
2019-04-21T09:58:37.921Z,19.05
2019-04-21T10:01:12.107Z,19.17
2019-04-21T10:03:43.416Z,19.22
2019-04-21T10:06:11.247Z,19.54
2019-04-21T10:08:44.653Z,19.48
2019-04-21T10:11:16.566Z,19.39
2019-04-21T10:13:48.803Z,19.31
2019-04-21T10:16:42.893Z,19.50
2019-04-21T10:19:15.279Z,19.80
2019-04-21T10:21:47.803Z,19.94
2019-04-21T10:24:20.172Z,20.09
2019-04-21T10:26:53.370Z,20.20
2019-04-21T10:29:29.442Z,20.49
2019-04-21T10:31:59.886Z,20.82
2019-04-21T10:34:32.743Z,21.09
2019-04-21T10:37:04.959Z,20.99
2019-04-21T10:39:37.785Z,20.86
2019-04-21T10:42:11.194Z,21.44
2019-04-21T10:44:43.282Z,21.34
2019-04-21T10:47:16.459Z,21.30
2019-04-21T10:49:48.714Z,21.67
2019-04-21T10:52:49.079Z,21.86
2019-04-21T10:55:41.750Z,21.99
2019-04-21T10:58:20.372Z,21.67
2019-04-21T11:01:00.051Z,21.93
2019-04-21T11:03:40.521Z,21.91
2019-04-21T11:06:14.749Z,22.00
2019-04-21T11:08:50.462Z,22.08
2019-04-21T11:11:21.786Z,22.61
2019-04-21T11:13:54.887Z,22.62
2019-04-21T11:16:27.279Z,22.95
2019-04-21T11:18:59.988Z,22.84
2019-04-21T11:21:31.958Z,22.98
2019-04-21T11:24:04.166Z,23.04
2019-04-21T11:26:36.442Z,23.20
2019-04-21T11:29:08.609Z,23.53
2019-04-21T11:31:41.083Z,23.13
2019-04-21T11:34:13.558Z,23.21
2019-04-21T11:36:45.928Z,23.43
2019-04-21T11:39:33.530Z,23.78
2019-04-21T11:41:59.653Z,23.78
2019-04-21T11:44:33.029Z,23.70
2019-04-21T11:47:08.308Z,23.58
2019-04-21T11:49:41.424Z,23.66
2019-04-21T11:52:13.458Z,23.78
2019-04-21T11:54:45.228Z,23.57
2019-04-21T11:57:22.707Z,23.08
2019-04-21T11:59:51.412Z,22.95
2019-04-21T12:02:23.724Z,22.34
2019-04-21T12:04:55.565Z,22.16
2019-04-21T12:07:27.626Z,22.16
2019-04-21T12:09:59.949Z,22.26
2019-04-21T12:12:33.490Z,21.98
2019-04-21T12:15:06.113Z,21.63
2019-04-21T12:17:39.490Z,21.53
2019-04-21T12:20:12.737Z,21.24
2019-04-21T12:22:45.344Z,21.23
2019-04-21T12:25:18.852Z,21.03
2019-04-21T12:27:51.987Z,20.90
2019-04-21T12:30:25.047Z,20.76
2019-04-21T12:33:22.349Z,20.67
2019-04-21T12:35:55.659Z,20.78
2019-04-21T12:38:36.402Z,20.91
2019-04-21T12:41:02.327Z,20.86
2019-04-21T12:43:35.263Z,20.69
2019-04-21T12:46:07.676Z,20.61
2019-04-21T12:48:40.022Z,20.47
2019-04-21T12:51:12.251Z,20.69
2019-04-21T12:53:45.580Z,20.75
2019-04-21T12:56:17.769Z,20.73
2019-04-21T12:58:49.622Z,20.76
2019-04-21T13:01:21.413Z,20.59
2019-04-21T13:03:53.316Z,20.66
2019-04-21T13:06:25.500Z,20.28
2019-04-21T13:09:03.369Z,20.39
2019-04-21T13:11:31.044Z,20.46
2019-04-21T13:14:04.047Z,20.45
2019-04-21T13:16:37.089Z,20.38
2019-04-21T13:19:09.432Z,20.44
2019-04-21T13:21:42.441Z,20.48
2019-04-21T13:24:15.910Z,20.50
2019-04-21T13:26:53.656Z,20.71
2019-04-21T13:29:21.390Z,20.84
2019-04-21T13:31:54.277Z,20.91
2019-04-21T13:34:26.445Z,20.85
2019-04-21T13:36:59.306Z,20.86
2019-04-21T13:40:13.128Z,21.04
2019-04-21T13:42:34.183Z,21.05
2019-04-21T13:45:02.426Z,21.11
2019-04-21T13:47:34.654Z,21.16
2019-04-21T13:50:08.732Z,21.18
2019-04-21T13:52:40.905Z,21.25
2019-04-21T13:55:14.139Z,21.45
2019-04-21T13:57:46.488Z,21.54
2019-04-21T14:00:19.409Z,21.54
2019-04-21T14:02:52.487Z,21.62
2019-04-21T14:05:24.594Z,21.93
2019-04-21T14:07:57.930Z,22.07
2019-04-21T14:10:31.350Z,22.15
2019-04-21T14:13:04.705Z,22.14
2019-04-21T14:15:37.776Z,22.04
2019-04-21T14:18:10.899Z,21.99
2019-04-21T14:20:42.991Z,22.20
2019-04-21T14:23:24.336Z,22.29
2019-04-21T14:25:48.435Z,22.30
2019-04-21T14:28:20.236Z,22.56
2019-04-21T14:30:52.533Z,22.79
2019-04-21T14:33:25.640Z,22.57
2019-04-21T14:35:58.896Z,22.48
2019-04-21T14:38:32.288Z,22.35
2019-04-21T14:41:04.106Z,22.19
2019-04-21T14:43:36.244Z,22.33
2019-04-21T14:46:21.668Z,22.32
2019-04-21T14:49:17.490Z,22.27
2019-04-21T14:52:11.223Z,22.64
2019-04-21T14:54:54.547Z,22.98
2019-04-21T14:57:27.353Z,23.74
2019-04-21T15:00:00.603Z,24.38
2019-04-21T15:02:33.971Z,24.23
2019-04-21T15:05:07.165Z,24.07
2019-04-21T15:07:39.352Z,23.92
2019-04-21T15:10:17.930Z,24.00
2019-04-21T15:12:45.645Z,24.02
2019-04-21T15:15:18.071Z,23.99
2019-04-21T15:17:50.021Z,24.66
2019-04-21T15:20:23.403Z,25.01
2019-04-21T15:22:56.555Z,25.57
2019-04-21T15:25:28.432Z,25.94
2019-04-21T15:28:01.190Z,27.33
2019-04-21T15:30:34.320Z,28.17
2019-04-21T15:33:06.482Z,28.30
2019-04-21T15:35:39.091Z,28.65
2019-04-21T15:38:11.957Z,29.43
2019-04-21T15:40:50.578Z,30.19
2019-04-21T15:43:18.269Z,30.35
2019-04-21T15:45:50.762Z,29.56
2019-04-21T15:48:23.971Z,29.47
2019-04-21T15:50:56.761Z,29.47
2019-04-21T15:53:31.868Z,30.45
2019-04-21T15:56:11.028Z,30.95
2019-04-21T15:59:00.989Z,31.69
2019-04-21T16:01:43.928Z,32.33
2019-04-21T16:04:16.820Z,31.21
2019-04-21T16:06:49.894Z,29.82
2019-04-21T16:09:25.276Z,28.07
2019-04-21T16:11:55.797Z,27.71
2019-04-21T16:14:29.028Z,26.62
2019-04-21T16:17:01.218Z,26.13
2019-04-21T16:19:34.177Z,25.91
2019-04-21T16:22:06.449Z,25.38
2019-04-21T16:24:39.871Z,25.72
2019-04-21T16:27:12.678Z,25.99
2019-04-21T16:29:45.786Z,26.50
2019-04-21T16:32:19.779Z,26.26
2019-04-21T16:34:59.237Z,25.70
2019-04-21T16:37:25.697Z,26.07
2019-04-21T16:39:57.517Z,26.01
2019-04-21T16:42:30.037Z,25.05
2019-04-21T16:45:03.167Z,24.36
2019-04-21T16:47:35.878Z,24.15
2019-04-21T16:50:09.898Z,23.87
2019-04-21T16:52:50.002Z,23.35
2019-04-21T16:55:37.072Z,22.98
2019-04-21T16:58:43.037Z,22.97
2019-04-21T17:01:29.222Z,22.62
2019-04-21T17:04:00.474Z,22.43
2019-04-21T17:06:33.227Z,22.28
2019-04-21T17:09:06.726Z,22.09
2019-04-21T17:11:40.124Z,21.99
2019-04-21T17:14:33.124Z,21.74
2019-04-21T17:17:09.301Z,21.68
2019-04-21T17:19:27.112Z,21.55
2019-04-21T17:21:53.113Z,21.48
2019-04-21T17:24:26.447Z,21.46
2019-04-21T17:26:59.567Z,21.30
2019-04-21T17:29:32.507Z,21.15
2019-04-21T17:32:07.760Z,21.00
2019-04-21T17:34:41.300Z,20.90
2019-04-21T17:37:13.135Z,20.75
2019-04-21T17:39:45.113Z,20.57
2019-04-21T17:42:26.476Z,20.50
2019-04-21T17:44:51.111Z,20.44
2019-04-21T17:47:34.121Z,20.32
2019-04-21T17:50:15.686Z,20.22
2019-04-21T17:52:59.043Z,20.11
2019-04-21T17:55:31.342Z,20.08
2019-04-21T17:58:16.283Z,20.00
2019-04-21T18:03:37.463Z,19.54
2019-04-21T18:05:59.603Z,19.26
2019-04-21T18:08:38.574Z,19.21
2019-04-21T18:11:01.861Z,19.02
2019-04-21T18:13:26.739Z,18.80
2019-04-21T18:16:10.733Z,18.65
2019-04-21T18:18:32.959Z,18.51
2019-04-21T18:21:12.426Z,18.35
2019-04-21T18:23:57.407Z,18.26
2019-04-21T18:26:30.352Z,18.12
2019-04-21T18:28:57.174Z,18.09
2019-04-21T18:31:33.920Z,18.05
2019-04-21T18:34:30.350Z,17.91
2019-04-21T18:37:05.476Z,17.90
2019-04-21T18:40:00.008Z,17.68
2019-04-21T18:42:55.077Z,17.57
2019-04-21T18:45:56.831Z,17.44
2019-04-21T18:48:28.183Z,17.38
2019-04-21T18:51:13.907Z,17.37
2019-04-21T18:54:14.900Z,17.26
2019-04-21T18:56:31.622Z,17.16
2019-04-21T18:59:04.431Z,17.13
2019-04-21T19:01:38.448Z,17.11
2019-04-21T19:04:15.499Z,16.99
2019-04-21T19:07:02.602Z,16.98
2019-04-21T19:09:56.800Z,16.92
2019-04-21T19:12:16.784Z,16.86
2019-04-21T19:14:40.092Z,16.81
2019-04-21T19:18:11.179Z,16.78
2019-04-21T19:19:54.346Z,16.69
2019-04-21T19:22:28.125Z,16.65
2019-04-21T19:24:59.490Z,16.55
2019-04-21T19:27:31.074Z,16.44
2019-04-21T19:30:13.573Z,16.27
2019-04-21T19:32:33.593Z,16.20
2019-04-21T19:34:59.879Z,16.16
2019-04-21T19:37:38.854Z,16.13
2019-04-21T19:40:14.174Z,16.07
2019-04-21T19:42:46.314Z,16.10
2019-04-21T19:45:22.470Z,16.06
2019-04-21T19:48:03.944Z,16.12
2019-04-21T19:50:40.775Z,16.13
2019-04-21T19:53:03.397Z,16.14
2019-04-21T19:55:25.848Z,16.18
2019-04-21T19:57:58.890Z,16.18
2019-04-21T20:00:31.009Z,16.17
2019-04-21T20:03:06.216Z,16.12
2019-04-21T20:05:45.337Z,16.11
2019-04-21T20:08:31.945Z,16.03
2019-04-21T20:11:03.919Z,16.04
2019-04-21T20:16:16.181Z,15.95
2019-04-21T20:18:36.853Z,15.90
2019-04-21T20:21:01.884Z,15.87
2019-04-21T20:23:35.945Z,15.81
2019-04-21T20:26:09.938Z,15.78
2019-04-21T20:28:48.861Z,15.68
2019-04-21T20:31:31.584Z,15.67
2019-04-21T20:34:13.482Z,15.59
2019-04-21T20:36:42.898Z,15.55
2019-04-21T20:39:05.805Z,15.53
2019-04-21T20:41:42.014Z,15.49
2019-04-21T20:44:21.587Z,15.47
2019-04-21T20:46:55.448Z,15.40
2019-04-21T20:49:23.161Z,15.36
2019-04-21T20:52:07.154Z,15.32
2019-04-21T20:54:37.772Z,15.28
2019-04-21T20:57:24.175Z,15.22
2019-04-21T20:59:38.929Z,15.21
2019-04-21T21:02:17.658Z,15.16
2019-04-21T21:04:43.439Z,15.08
2019-04-21T21:07:36.391Z,15.00
2019-04-21T21:10:00.147Z,15.01
2019-04-21T21:12:37.139Z,14.96
2019-04-21T21:14:57.548Z,14.93
2019-04-21T21:17:49.920Z,14.86
2019-04-21T21:20:16.604Z,14.80
2019-04-21T21:22:42.359Z,14.73
2019-04-21T21:25:25.565Z,14.63
2019-04-21T21:27:46.747Z,14.63
2019-04-21T21:30:23.879Z,14.64
2019-04-21T21:33:04.561Z,14.59
2019-04-21T21:35:29.590Z,14.50
2019-04-21T21:38:06.702Z,14.39
2019-04-21T21:40:40.968Z,14.39
2019-04-21T21:42:57.371Z,14.35
2019-04-21T21:45:34.860Z,14.31
2019-04-21T21:48:18.646Z,14.30
2019-04-21T21:50:45.903Z,14.32
2019-04-21T21:53:16.180Z,14.31
2019-04-21T21:55:44.699Z,14.23
2019-04-21T21:58:25.276Z,14.17
2019-04-21T22:00:56.993Z,14.16
2019-04-21T22:03:31.870Z,14.16
2019-04-21T22:06:07.285Z,13.98
2019-04-21T22:08:34.232Z,13.91
2019-04-21T22:11:07.237Z,13.91
2019-04-21T22:13:47.669Z,13.87
2019-04-21T22:16:15.689Z,13.87
2019-04-21T22:19:07.940Z,13.81
2019-04-21T22:21:41.286Z,13.69
2019-04-21T22:24:00.518Z,13.69
2019-04-21T22:26:27.514Z,13.65
2019-04-21T22:28:59.543Z,13.63
2019-04-21T22:31:38.914Z,13.51
2019-04-21T22:34:12.241Z,13.51
2019-04-21T22:36:48.474Z,13.50
2019-04-21T22:39:35.595Z,13.40
2019-04-21T22:42:00.976Z,13.34
2019-04-21T22:44:22.865Z,13.27
2019-04-21T22:47:04.215Z,13.20
2019-04-21T22:49:28.641Z,13.10
2019-04-21T22:52:03.947Z,13.04
2019-04-21T22:54:39.683Z,12.97
2019-04-21T22:57:16.633Z,12.90
2019-04-21T22:59:46.343Z,12.84
2019-04-21T23:02:23.738Z,12.72
2019-04-21T23:04:56.241Z,12.68
2019-04-21T23:07:26.680Z,12.61
2019-04-21T23:09:59.119Z,12.64
2019-04-21T23:12:36.247Z,12.54
2019-04-21T23:15:11.789Z,12.46
2019-04-21T23:18:01.619Z,12.38
2019-04-21T23:20:32.787Z,12.30
2019-04-21T23:23:08.340Z,12.27
2019-04-21T23:25:36.608Z,12.09
2019-04-21T23:28:09.485Z,12.11
2019-04-21T23:30:50.285Z,12.06
2019-04-21T23:33:06.036Z,11.98
2019-04-21T23:35:38.736Z,11.88
2019-04-21T23:38:08.665Z,11.86
2019-04-21T23:40:48.811Z,11.81
2019-04-21T23:43:19.239Z,11.83
2019-04-21T23:45:48.711Z,11.70
2019-04-21T23:48:32.510Z,11.70
2019-04-21T23:51:10.923Z,11.56
2019-04-21T23:53:29.247Z,11.53
2019-04-21T23:56:01.309Z,11.46
2019-04-21T23:58:36.277Z,11.42
